Terminal Aerodrome Forecast
Issued by NWS Sterling, VA

Home | Current Version | Previous Version | Text Only | Print | Product List | Glossary On
Versions: 1 2 3 4 5 6 7 8 9 10 11 12 13 14
900
FTUS41 KLWX 241736 AAA
TAFMRB
TAF AMD
KMRB 241736Z 2418/2518 17006KT P6SM SKC
     FM251500 22004KT P6SM BKN110=

USA.gov is the U.S. government's official web portal to all federal, state and local government web resources and services.